sensor_id;sensor_type;location;lat;lon;timestamp;temperature;humidity
2030;DHT22;1020;48.854;8.830;2022-08-19T00:02:26;19.30;99.90
2030;DHT22;1020;48.854;8.830;2022-08-19T00:04:53;19.20;97.80
2030;DHT22;1020;48.854;8.830;2022-08-19T00:07:20;19.20;99.90
2030;DHT22;1020;48.854;8.830;2022-08-19T00:09:46;19.20;99.90
2030;DHT22;1020;48.854;8.830;2022-08-19T00:12:13;19.20;99.90
2030;DHT22;1020;48.854;8.830;2022-08-19T00:14:41;19.10;99.90
2030;DHT22;1020;48.854;8.830;2022-08-19T00:17:09;19.20;99.90
2030;DHT22;1020;48.854;8.830;2022-08-19T00:19:36;19.30;99.90
2030;DHT22;1020;48.854;8.830;2022-08-19T00:22:04;19.20;99.90
2030;DHT22;1020;48.854;8.830;2022-08-19T00:24:31;19.30;99.70
2030;DHT22;1020;48.854;8.830;2022-08-19T00:26:58;19.20;93.10
2030;DHT22;1020;48.854;8.830;2022-08-19T00:29:27;19.20;96.80
2030;DHT22;1020;48.854;8.830;2022-08-19T00:31:54;19.20;90.60
2030;DHT22;1020;48.854;8.830;2022-08-19T00:34:25;19.30;88.80
2030;DHT22;1020;48.854;8.830;2022-08-19T00:36:54;19.20;88.10
2030;DHT22;1020;48.854;8.830;2022-08-19T00:39:21;19.20;97.30
2030;DHT22;1020;48.854;8.830;2022-08-19T00:41:49;19.10;94.50
2030;DHT22;1020;48.854;8.830;2022-08-19T00:44:19;19.10;96.30
2030;DHT22;1020;48.854;8.830;2022-08-19T00:46:48;19.00;94.00
2030;DHT22;1020;48.854;8.830;2022-08-19T00:49:16;19.10;99.20
2030;DHT22;1020;48.854;8.830;2022-08-19T00:51:50;19.10;99.90
2030;DHT22;1020;48.854;8.830;2022-08-19T00:54:20;19.10;99.90
2030;DHT22;1020;48.854;8.830;2022-08-19T00:56:48;19.10;99.90
2030;DHT22;1020;48.854;8.830;2022-08-19T00:59:16;19.10;99.90
2030;DHT22;1020;48.854;8.830;2022-08-19T01:01:45;19.10;99.90
2030;DHT22;1020;48.854;8.830;2022-08-19T01:04:12;19.00;99.90
2030;DHT22;1020;48.854;8.830;2022-08-19T01:06:39;19.00;99.90
2030;DHT22;1020;48.854;8.830;2022-08-19T01:09:09;18.90;99.90
2030;DHT22;1020;48.854;8.830;2022-08-19T01:11:40;18.90;99.90
2030;DHT22;1020;48.854;8.830;2022-08-19T01:14:08;18.90;99.90
2030;DHT22;1020;48.854;8.830;2022-08-19T01:16:36;18.90;99.90
2030;DHT22;1020;48.854;8.830;2022-08-19T01:19:09;18.90;99.90
2030;DHT22;1020;48.854;8.830;2022-08-19T01:21:43;18.90;99.90
2030;DHT22;1020;48.854;8.830;2022-08-19T01:24:15;18.90;99.90
2030;DHT22;1020;48.854;8.830;2022-08-19T01:26:43;19.00;99.90
2030;DHT22;1020;48.854;8.830;2022-08-19T01:29:10;18.90;95.30
2030;DHT22;1020;48.854;8.830;2022-08-19T01:31:37;18.90;99.90
2030;DHT22;1020;48.854;8.830;2022-08-19T01:34:06;18.90;99.90
2030;DHT22;1020;48.854;8.830;2022-08-19T01:36:38;18.90;99.90
2030;DHT22;1020;48.854;8.830;2022-08-19T01:39:09;18.90;99.90
2030;DHT22;1020;48.854;8.830;2022-08-19T01:41:38;18.90;99.90
2030;DHT22;1020;48.854;8.830;2022-08-19T01:44:07;18.80;99.90
2030;DHT22;1020;48.854;8.830;2022-08-19T01:46:35;18.80;99.90
2030;DHT22;1020;48.854;8.830;2022-08-19T01:49:03;18.80;99.90
2030;DHT22;1020;48.854;8.830;2022-08-19T01:51:30;18.80;99.90
2030;DHT22;1020;48.854;8.830;2022-08-19T01:53:57;18.80;99.90
2030;DHT22;1020;48.854;8.830;2022-08-19T01:56:24;18.70;99.90
2030;DHT22;1020;48.854;8.830;2022-08-19T01:58:55;18.70;99.90
2030;DHT22;1020;48.854;8.830;2022-08-19T02:01:24;18.70;99.90
2030;DHT22;1020;48.854;8.830;2022-08-19T02:03:50;18.70;99.90
2030;DHT22;1020;48.854;8.830;2022-08-19T02:06:20;18.70;99.90
2030;DHT22;1020;48.854;8.830;2022-08-19T02:08:47;18.80;99.90
2030;DHT22;1020;48.854;8.830;2022-08-19T02:11:20;18.80;99.90
2030;DHT22;1020;48.854;8.830;2022-08-19T02:13:47;18.80;99.90
2030;DHT22;1020;48.854;8.830;2022-08-19T02:16:17;18.70;99.90
2030;DHT22;1020;48.854;8.830;2022-08-19T02:18:44;18.70;99.90
2030;DHT22;1020;48.854;8.830;2022-08-19T02:21:13;18.70;99.90
2030;DHT22;1020;48.854;8.830;2022-08-19T02:23:41;18.70;99.90
2030;DHT22;1020;48.854;8.830;2022-08-19T02:26:08;18.70;99.90
2030;DHT22;1020;48.854;8.830;2022-08-19T02:28:35;18.70;99.90
2030;DHT22;1020;48.854;8.830;2022-08-19T02:31:03;18.70;99.90
2030;DHT22;1020;48.854;8.830;2022-08-19T02:33:31;18.70;99.90
2030;DHT22;1020;48.854;8.830;2022-08-19T02:35:58;18.70;99.90
2030;DHT22;1020;48.854;8.830;2022-08-19T02:38:24;18.70;99.90
2030;DHT22;1020;48.854;8.830;2022-08-19T02:40:51;18.70;99.90
2030;DHT22;1020;48.854;8.830;2022-08-19T02:43:19;18.70;99.90
2030;DHT22;1020;48.854;8.830;2022-08-19T02:45:47;18.70;99.90
2030;DHT22;1020;48.854;8.830;2022-08-19T02:48:14;18.60;99.90
2030;DHT22;1020;48.854;8.830;2022-08-19T02:50:43;18.60;99.90
2030;DHT22;1020;48.854;8.830;2022-08-19T02:53:10;18.60;99.90
2030;DHT22;1020;48.854;8.830;2022-08-19T02:55:43;18.60;99.90
2030;DHT22;1020;48.854;8.830;2022-08-19T02:58:10;18.60;99.90
2030;DHT22;1020;48.854;8.830;2022-08-19T03:00:42;18.60;99.90
2030;DHT22;1020;48.854;8.830;2022-08-19T03:03:09;18.60;99.90
2030;DHT22;1020;48.854;8.830;2022-08-19T03:05:36;18.60;99.90
2030;DHT22;1020;48.854;8.830;2022-08-19T03:08:04;18.50;99.90
2030;DHT22;1020;48.854;8.830;2022-08-19T03:10:31;18.60;99.90
2030;DHT22;1020;48.854;8.830;2022-08-19T03:12:58;18.50;99.90
2030;DHT22;1020;48.854;8.830;2022-08-19T03:15:24;18.50;99.90
2030;DHT22;1020;48.854;8.830;2022-08-19T03:17:51;18.50;99.90
2030;DHT22;1020;48.854;8.830;2022-08-19T03:20:18;18.50;99.90
2030;DHT22;1020;48.854;8.830;2022-08-19T03:22:45;18.50;99.90
2030;DHT22;1020;48.854;8.830;2022-08-19T03:25:13;18.50;99.90
2030;DHT22;1020;48.854;8.830;2022-08-19T03:27:39;18.50;99.90
2030;DHT22;1020;48.854;8.830;2022-08-19T03:30:07;18.40;99.90
2030;DHT22;1020;48.854;8.830;2022-08-19T03:32:35;18.40;99.90
2030;DHT22;1020;48.854;8.830;2022-08-19T03:35:02;18.40;99.90
2030;DHT22;1020;48.854;8.830;2022-08-19T03:37:28;18.40;99.90
2030;DHT22;1020;48.854;8.830;2022-08-19T03:39:55;18.40;99.90
2030;DHT22;1020;48.854;8.830;2022-08-19T03:42:23;18.40;99.90
2030;DHT22;1020;48.854;8.830;2022-08-19T03:44:52;18.40;99.90
2030;DHT22;1020;48.854;8.830;2022-08-19T03:47:19;18.40;99.90
2030;DHT22;1020;48.854;8.830;2022-08-19T03:49:45;18.30;99.90
2030;DHT22;1020;48.854;8.830;2022-08-19T03:52:12;18.30;99.90
2030;DHT22;1020;48.854;8.830;2022-08-19T03:54:39;18.30;99.90
2030;DHT22;1020;48.854;8.830;2022-08-19T03:57:06;18.30;99.90
2030;DHT22;1020;48.854;8.830;2022-08-19T03:59:36;18.30;99.90
2030;DHT22;1020;48.854;8.830;2022-08-19T04:02:08;18.30;99.90
2030;DHT22;1020;48.854;8.830;2022-08-19T04:04:35;18.20;99.90
2030;DHT22;1020;48.854;8.830;2022-08-19T04:07:03;18.20;99.90
2030;DHT22;1020;48.854;8.830;2022-08-19T04:09:30;18.20;99.90
2030;DHT22;1020;48.854;8.830;2022-08-19T04:11:58;18.20;99.90
2030;DHT22;1020;48.854;8.830;2022-08-19T04:14:27;18.20;99.90
2030;DHT22;1020;48.854;8.830;2022-08-19T04:16:57;18.10;99.90
2030;DHT22;1020;48.854;8.830;2022-08-19T04:19:25;18.20;99.90
2030;DHT22;1020;48.854;8.830;2022-08-19T04:21:53;18.20;99.90
2030;DHT22;1020;48.854;8.830;2022-08-19T04:24:21;18.10;99.90
2030;DHT22;1020;48.854;8.830;2022-08-19T04:26:48;18.10;99.90
2030;DHT22;1020;48.854;8.830;2022-08-19T04:29:17;18.20;99.90
2030;DHT22;1020;48.854;8.830;2022-08-19T04:31:45;18.20;99.90
2030;DHT22;1020;48.854;8.830;2022-08-19T04:34:16;18.20;99.90
2030;DHT22;1020;48.854;8.830;2022-08-19T04:36:44;18.20;99.90
2030;DHT22;1020;48.854;8.830;2022-08-19T04:39:13;18.30;99.90
2030;DHT22;1020;48.854;8.830;2022-08-19T04:41:41;18.20;99.90
2030;DHT22;1020;48.854;8.830;2022-08-19T04:44:25;18.20;99.90
2030;DHT22;1020;48.854;8.830;2022-08-19T04:46:52;18.20;99.90
2030;DHT22;1020;48.854;8.830;2022-08-19T04:49:22;18.20;99.90
2030;DHT22;1020;48.854;8.830;2022-08-19T04:51:51;18.20;99.90
2030;DHT22;1020;48.854;8.830;2022-08-19T04:54:21;18.30;99.90
2030;DHT22;1020;48.854;8.830;2022-08-19T04:56:49;18.20;99.90
2030;DHT22;1020;48.854;8.830;2022-08-19T04:59:17;18.20;99.90
2030;DHT22;1020;48.854;8.830;2022-08-19T05:01:46;18.20;99.90
2030;DHT22;1020;48.854;8.830;2022-08-19T05:04:16;18.20;99.90
2030;DHT22;1020;48.854;8.830;2022-08-19T05:06:46;18.20;99.90
2030;DHT22;1020;48.854;8.830;2022-08-19T05:09:14;18.30;99.90
2030;DHT22;1020;48.854;8.830;2022-08-19T05:11:41;18.30;99.90
2030;DHT22;1020;48.854;8.830;2022-08-19T05:14:09;18.30;99.90
2030;DHT22;1020;48.854;8.830;2022-08-19T05:16:38;18.30;99.90
2030;DHT22;1020;48.854;8.830;2022-08-19T05:19:05;18.30;99.90
2030;DHT22;1020;48.854;8.830;2022-08-19T05:21:50;18.30;99.90
2030;DHT22;1020;48.854;8.830;2022-08-19T05:24:36;18.30;99.90
2030;DHT22;1020;48.854;8.830;2022-08-19T05:27:03;18.40;99.90
2030;DHT22;1020;48.854;8.830;2022-08-19T05:29:32;18.40;99.90
2030;DHT22;1020;48.854;8.830;2022-08-19T05:32:00;18.40;99.90
2030;DHT22;1020;48.854;8.830;2022-08-19T05:34:27;18.40;99.90
2030;DHT22;1020;48.854;8.830;2022-08-19T05:36:57;18.40;99.90
2030;DHT22;1020;48.854;8.830;2022-08-19T05:39:26;18.40;99.90
2030;DHT22;1020;48.854;8.830;2022-08-19T05:41:55;18.40;99.90
2030;DHT22;1020;48.854;8.830;2022-08-19T05:44:23;18.40;99.90
2030;DHT22;1020;48.854;8.830;2022-08-19T05:46:51;18.50;99.90
2030;DHT22;1020;48.854;8.830;2022-08-19T05:49:20;18.50;99.90
2030;DHT22;1020;48.854;8.830;2022-08-19T05:51:47;18.50;99.90
2030;DHT22;1020;48.854;8.830;2022-08-19T05:54:16;18.50;99.90
2030;DHT22;1020;48.854;8.830;2022-08-19T05:56:45;18.60;99.90
2030;DHT22;1020;48.854;8.830;2022-08-19T05:59:14;18.60;99.90
2030;DHT22;1020;48.854;8.830;2022-08-19T06:01:42;18.60;99.90
2030;DHT22;1020;48.854;8.830;2022-08-19T06:04:10;18.70;99.90
2030;DHT22;1020;48.854;8.830;2022-08-19T06:06:36;18.70;99.90
2030;DHT22;1020;48.854;8.830;2022-08-19T06:09:05;18.70;99.90
2030;DHT22;1020;48.854;8.830;2022-08-19T06:11:36;18.80;99.90
2030;DHT22;1020;48.854;8.830;2022-08-19T06:14:05;18.80;99.90
2030;DHT22;1020;48.854;8.830;2022-08-19T06:16:34;18.90;99.90
2030;DHT22;1020;48.854;8.830;2022-08-19T06:19:05;18.90;99.90
2030;DHT22;1020;48.854;8.830;2022-08-19T06:21:33;18.90;99.90
2030;DHT22;1020;48.854;8.830;2022-08-19T06:24:03;19.00;99.90
2030;DHT22;1020;48.854;8.830;2022-08-19T06:26:30;19.00;99.90
2030;DHT22;1020;48.854;8.830;2022-08-19T06:28:58;19.00;99.90
2030;DHT22;1020;48.854;8.830;2022-08-19T06:31:27;19.00;99.90
2030;DHT22;1020;48.854;8.830;2022-08-19T06:33:54;19.10;99.90
2030;DHT22;1020;48.854;8.830;2022-08-19T06:36:22;19.10;99.90
2030;DHT22;1020;48.854;8.830;2022-08-19T06:38:52;19.10;99.90
2030;DHT22;1020;48.854;8.830;2022-08-19T06:41:19;19.20;99.90
2030;DHT22;1020;48.854;8.830;2022-08-19T06:43:46;19.10;99.90
2030;DHT22;1020;48.854;8.830;2022-08-19T06:46:16;19.10;99.90
2030;DHT22;1020;48.854;8.830;2022-08-19T06:48:45;19.20;99.90
2030;DHT22;1020;48.854;8.830;2022-08-19T06:51:12;19.20;99.90
2030;DHT22;1020;48.854;8.830;2022-08-19T06:53:41;19.20;99.90
2030;DHT22;1020;48.854;8.830;2022-08-19T06:56:13;19.30;99.90
2030;DHT22;1020;48.854;8.830;2022-08-19T06:58:40;19.30;99.90
2030;DHT22;1020;48.854;8.830;2022-08-19T07:01:07;19.40;99.90
2030;DHT22;1020;48.854;8.830;2022-08-19T07:03:37;19.40;99.90
2030;DHT22;1020;48.854;8.830;2022-08-19T07:06:05;19.50;99.90
2030;DHT22;1020;48.854;8.830;2022-08-19T07:08:32;19.50;99.90
2030;DHT22;1020;48.854;8.830;2022-08-19T07:10:59;19.60;99.90
2030;DHT22;1020;48.854;8.830;2022-08-19T07:13:26;19.60;91.50
2030;DHT22;1020;48.854;8.830;2022-08-19T07:15:53;19.50;91.30
2030;DHT22;1020;48.854;8.830;2022-08-19T07:18:20;19.50;79.40
2030;DHT22;1020;48.854;8.830;2022-08-19T07:20:48;19.60;74.70
2030;DHT22;1020;48.854;8.830;2022-08-19T07:23:15;19.60;54.20
2030;DHT22;1020;48.854;8.830;2022-08-19T07:25:42;19.60;72.30
2030;DHT22;1020;48.854;8.830;2022-08-19T07:28:08;19.70;58.40
2030;DHT22;1020;48.854;8.830;2022-08-19T07:30:38;19.80;36.70
2030;DHT22;1020;48.854;8.830;2022-08-19T07:33:06;19.80;54.20
2030;DHT22;1020;48.854;8.830;2022-08-19T07:35:32;19.80;50.30
2030;DHT22;1020;48.854;8.830;2022-08-19T07:38:01;19.90;47.60
2030;DHT22;1020;48.854;8.830;2022-08-19T07:40:29;19.90;45.30
2030;DHT22;1020;48.854;8.830;2022-08-19T07:42:56;20.10;24.90
2030;DHT22;1020;48.854;8.830;2022-08-19T07:45:23;20.20;17.50
2030;DHT22;1020;48.854;8.830;2022-08-19T07:47:51;20.40;1.00
2030;DHT22;1020;48.854;8.830;2022-08-19T07:50:19;20.60;1.00
2030;DHT22;1020;48.854;8.830;2022-08-19T07:52:47;20.80;1.00
2030;DHT22;1020;48.854;8.830;2022-08-19T07:55:18;20.90;1.00
2030;DHT22;1020;48.854;8.830;2022-08-19T07:57:45;20.90;1.00
2030;DHT22;1020;48.854;8.830;2022-08-19T08:00:13;20.90;1.00
2030;DHT22;1020;48.854;8.830;2022-08-19T08:02:40;21.30;1.00
2030;DHT22;1020;48.854;8.830;2022-08-19T08:05:08;21.50;1.00
2030;DHT22;1020;48.854;8.830;2022-08-19T08:07:52;21.60;1.00
2030;DHT22;1020;48.854;8.830;2022-08-19T08:10:38;21.60;1.00
2030;DHT22;1020;48.854;8.830;2022-08-19T08:13:05;21.70;1.00
2030;DHT22;1020;48.854;8.830;2022-08-19T08:15:32;21.80;1.00
2030;DHT22;1020;48.854;8.830;2022-08-19T08:17:58;21.90;1.00
2030;DHT22;1020;48.854;8.830;2022-08-19T08:20:25;22.00;1.00
2030;DHT22;1020;48.854;8.830;2022-08-19T08:22:52;22.00;99.90
2030;DHT22;1020;48.854;8.830;2022-08-19T08:25:37;22.00;1.00
2030;DHT22;1020;48.854;8.830;2022-08-19T08:28:04;22.10;99.90
2030;DHT22;1020;48.854;8.830;2022-08-19T08:30:34;22.10;99.90
2030;DHT22;1020;48.854;8.830;2022-08-19T08:33:03;22.10;99.90
2030;DHT22;1020;48.854;8.830;2022-08-19T08:35:30;22.20;99.90
2030;DHT22;1020;48.854;8.830;2022-08-19T08:37:57;22.00;1.00
2030;DHT22;1020;48.854;8.830;2022-08-19T08:40:28;22.20;1.00
2030;DHT22;1020;48.854;8.830;2022-08-19T08:42:59;22.40;99.90
2030;DHT22;1020;48.854;8.830;2022-08-19T08:45:30;22.20;99.90
2030;DHT22;1020;48.854;8.830;2022-08-19T08:48:04;22.10;99.90
2030;DHT22;1020;48.854;8.830;2022-08-19T08:50:41;22.20;99.90
2030;DHT22;1020;48.854;8.830;2022-08-19T08:53:10;22.20;99.90
2030;DHT22;1020;48.854;8.830;2022-08-19T08:55:37;22.30;99.90
2030;DHT22;1020;48.854;8.830;2022-08-19T08:58:13;22.30;99.90
2030;DHT22;1020;48.854;8.830;2022-08-19T09:00:44;22.40;99.90
2030;DHT22;1020;48.854;8.830;2022-08-19T09:03:19;22.60;1.00
2030;DHT22;1020;48.854;8.830;2022-08-19T09:05:56;22.60;1.00
2030;DHT22;1020;48.854;8.830;2022-08-19T09:08:33;22.50;1.00
2030;DHT22;1020;48.854;8.830;2022-08-19T09:11:06;22.70;1.00
2030;DHT22;1020;48.854;8.830;2022-08-19T09:13:42;22.80;99.90
2030;DHT22;1020;48.854;8.830;2022-08-19T09:16:15;22.90;99.90
2030;DHT22;1020;48.854;8.830;2022-08-19T09:18:44;23.00;99.90
2030;DHT22;1020;48.854;8.830;2022-08-19T09:21:12;23.20;99.90
2030;DHT22;1020;48.854;8.830;2022-08-19T09:23:40;23.00;99.90
2030;DHT22;1020;48.854;8.830;2022-08-19T09:26:10;23.20;99.90
2030;DHT22;1020;48.854;8.830;2022-08-19T09:28:40;23.50;1.00
2030;DHT22;1020;48.854;8.830;2022-08-19T09:31:09;23.50;69.40
2030;DHT22;1020;48.854;8.830;2022-08-19T09:33:36;23.30;1.00
2030;DHT22;1020;48.854;8.830;2022-08-19T09:36:05;23.00;99.90
2030;DHT22;1020;48.854;8.830;2022-08-19T09:38:32;23.10;1.00
2030;DHT22;1020;48.854;8.830;2022-08-19T09:41:03;23.10;1.00
2030;DHT22;1020;48.854;8.830;2022-08-19T09:43:31;23.30;99.90
2030;DHT22;1020;48.854;8.830;2022-08-19T09:46:00;23.20;99.90
2030;DHT22;1020;48.854;8.830;2022-08-19T09:48:26;23.30;99.90
2030;DHT22;1020;48.854;8.830;2022-08-19T09:50:53;23.40;99.90
2030;DHT22;1020;48.854;8.830;2022-08-19T09:53:20;23.30;99.90
2030;DHT22;1020;48.854;8.830;2022-08-19T09:55:48;23.30;1.00
2030;DHT22;1020;48.854;8.830;2022-08-19T09:58:15;23.40;99.90
2030;DHT22;1020;48.854;8.830;2022-08-19T10:00:41;23.50;99.90
2030;DHT22;1020;48.854;8.830;2022-08-19T10:03:09;23.40;1.00
2030;DHT22;1020;48.854;8.830;2022-08-19T10:05:37;23.50;1.00
2030;DHT22;1020;48.854;8.830;2022-08-19T10:08:17;23.70;99.90
2030;DHT22;1020;48.854;8.830;2022-08-19T10:10:44;23.80;99.90
2030;DHT22;1020;48.854;8.830;2022-08-19T10:13:12;24.10;1.00
2030;DHT22;1020;48.854;8.830;2022-08-19T10:15:38;24.10;52.60
2030;DHT22;1020;48.854;8.830;2022-08-19T10:18:06;23.90;99.90
2030;DHT22;1020;48.854;8.830;2022-08-19T10:20:34;23.80;99.90
2030;DHT22;1020;48.854;8.830;2022-08-19T10:23:02;23.80;99.90
2030;DHT22;1020;48.854;8.830;2022-08-19T10:25:29;23.90;1.00
2030;DHT22;1020;48.854;8.830;2022-08-19T10:27:59;23.80;99.90
2030;DHT22;1020;48.854;8.830;2022-08-19T10:30:26;23.70;99.90
2030;DHT22;1020;48.854;8.830;2022-08-19T10:32:53;23.70;99.90
2030;DHT22;1020;48.854;8.830;2022-08-19T10:35:19;23.90;99.90
2030;DHT22;1020;48.854;8.830;2022-08-19T10:37:48;24.30;1.00
2030;DHT22;1020;48.854;8.830;2022-08-19T10:40:15;24.60;1.00
2030;DHT22;1020;48.854;8.830;2022-08-19T10:42:42;24.80;99.90
2030;DHT22;1020;48.854;8.830;2022-08-19T10:45:09;25.10;99.90
2030;DHT22;1020;48.854;8.830;2022-08-19T10:47:37;25.40;99.90
2030;DHT22;1020;48.854;8.830;2022-08-19T10:50:04;25.60;32.60
2030;DHT22;1020;48.854;8.830;2022-08-19T10:52:50;25.50;1.00
2030;DHT22;1020;48.854;8.830;2022-08-19T10:55:18;25.50;1.00
2030;DHT22;1020;48.854;8.830;2022-08-19T10:58:03;25.80;1.00
2030;DHT22;1020;48.854;8.830;2022-08-19T11:00:30;25.80;1.00
2030;DHT22;1020;48.854;8.830;2022-08-19T11:02:58;25.70;1.00
2030;DHT22;1020;48.854;8.830;2022-08-19T11:05:25;25.40;1.00
2030;DHT22;1020;48.854;8.830;2022-08-19T11:07:53;25.50;1.00
2030;DHT22;1020;48.854;8.830;2022-08-19T11:10:20;25.40;1.00
2030;DHT22;1020;48.854;8.830;2022-08-19T11:12:49;25.40;1.00
2030;DHT22;1020;48.854;8.830;2022-08-19T11:15:18;25.40;1.00
2030;DHT22;1020;48.854;8.830;2022-08-19T11:17:45;24.90;1.00
2030;DHT22;1020;48.854;8.830;2022-08-19T11:20:13;24.90;1.00
2030;DHT22;1020;48.854;8.830;2022-08-19T11:22:41;25.00;1.00
2030;DHT22;1020;48.854;8.830;2022-08-19T11:25:10;25.80;1.00
2030;DHT22;1020;48.854;8.830;2022-08-19T11:27:38;26.40;1.00
2030;DHT22;1020;48.854;8.830;2022-08-19T11:30:08;26.80;1.00
2030;DHT22;1020;48.854;8.830;2022-08-19T11:32:35;26.90;1.00
2030;DHT22;1020;48.854;8.830;2022-08-19T11:35:02;26.70;1.00
2030;DHT22;1020;48.854;8.830;2022-08-19T11:37:29;26.60;1.00
2030;DHT22;1020;48.854;8.830;2022-08-19T11:39:56;26.20;1.00
2030;DHT22;1020;48.854;8.830;2022-08-19T11:42:24;25.70;1.00
2030;DHT22;1020;48.854;8.830;2022-08-19T11:45:08;25.70;1.00
2030;DHT22;1020;48.854;8.830;2022-08-19T11:47:35;26.00;1.00
2030;DHT22;1020;48.854;8.830;2022-08-19T11:50:04;26.70;1.00
2030;DHT22;1020;48.854;8.830;2022-08-19T11:52:31;27.30;99.90
2030;DHT22;1020;48.854;8.830;2022-08-19T11:54:58;27.60;99.90
2030;DHT22;1020;48.854;8.830;2022-08-19T11:57:26;28.00;99.90
2030;DHT22;1020;48.854;8.830;2022-08-19T11:59:53;28.60;99.90
2030;DHT22;1020;48.854;8.830;2022-08-19T12:02:20;28.30;99.90
2030;DHT22;1020;48.854;8.830;2022-08-19T12:04:47;28.50;99.90
2030;DHT22;1020;48.854;8.830;2022-08-19T12:07:14;28.90;99.90
2030;DHT22;1020;48.854;8.830;2022-08-19T12:09:41;28.90;99.90
2030;DHT22;1020;48.854;8.830;2022-08-19T12:12:08;28.90;99.90
2030;DHT22;1020;48.854;8.830;2022-08-19T12:14:36;28.80;99.90
2030;DHT22;1020;48.854;8.830;2022-08-19T12:17:03;28.50;99.90
2030;DHT22;1020;48.854;8.830;2022-08-19T12:19:35;28.30;99.90
2030;DHT22;1020;48.854;8.830;2022-08-19T12:22:02;28.00;99.90
2030;DHT22;1020;48.854;8.830;2022-08-19T12:24:31;28.00;99.90
2030;DHT22;1020;48.854;8.830;2022-08-19T12:26:58;28.30;99.90
2030;DHT22;1020;48.854;8.830;2022-08-19T12:29:27;28.50;99.90
2030;DHT22;1020;48.854;8.830;2022-08-19T12:31:56;28.30;99.90
2030;DHT22;1020;48.854;8.830;2022-08-19T12:34:28;27.80;99.90
2030;DHT22;1020;48.854;8.830;2022-08-19T12:36:56;27.60;99.90
2030;DHT22;1020;48.854;8.830;2022-08-19T12:39:23;27.80;99.90
2030;DHT22;1020;48.854;8.830;2022-08-19T12:41:50;28.00;99.90
2030;DHT22;1020;48.854;8.830;2022-08-19T12:44:17;28.10;99.90
2030;DHT22;1020;48.854;8.830;2022-08-19T12:46:44;28.20;99.90
2030;DHT22;1020;48.854;8.830;2022-08-19T12:49:12;28.60;99.90
2030;DHT22;1020;48.854;8.830;2022-08-19T12:51:38;29.10;99.90
2030;DHT22;1020;48.854;8.830;2022-08-19T12:54:05;29.80;99.90
2030;DHT22;1020;48.854;8.830;2022-08-19T12:56:32;30.20;99.90
2030;DHT22;1020;48.854;8.830;2022-08-19T12:59:01;30.70;99.90
2030;DHT22;1020;48.854;8.830;2022-08-19T13:01:28;31.10;99.90
2030;DHT22;1020;48.854;8.830;2022-08-19T13:03:55;31.30;99.90
2030;DHT22;1020;48.854;8.830;2022-08-19T13:06:23;31.30;99.90
2030;DHT22;1020;48.854;8.830;2022-08-19T13:08:51;30.80;99.90
2030;DHT22;1020;48.854;8.830;2022-08-19T13:11:19;30.60;99.90
2030;DHT22;1020;48.854;8.830;2022-08-19T13:13:51;29.60;99.90
2030;DHT22;1020;48.854;8.830;2022-08-19T13:16:19;29.60;99.90
2030;DHT22;1020;48.854;8.830;2022-08-19T13:18:48;29.00;99.90
2030;DHT22;1020;48.854;8.830;2022-08-19T13:21:18;28.60;99.90
2030;DHT22;1020;48.854;8.830;2022-08-19T13:23:47;28.10;99.90
2030;DHT22;1020;48.854;8.830;2022-08-19T13:26:15;27.50;99.90
2030;DHT22;1020;48.854;8.830;2022-08-19T13:28:43;26.90;99.90
2030;DHT22;1020;48.854;8.830;2022-08-19T13:31:30;26.40;99.90
2030;DHT22;1020;48.854;8.830;2022-08-19T13:34:16;26.40;99.90
2030;DHT22;1020;48.854;8.830;2022-08-19T13:36:43;26.50;99.90
2030;DHT22;1020;48.854;8.830;2022-08-19T13:39:11;26.40;99.90
2030;DHT22;1020;48.854;8.830;2022-08-19T13:41:43;26.20;99.90
2030;DHT22;1020;48.854;8.830;2022-08-19T13:44:13;26.00;99.90
2030;DHT22;1020;48.854;8.830;2022-08-19T13:46:40;25.90;99.90
2030;DHT22;1020;48.854;8.830;2022-08-19T13:49:10;26.00;99.90
2030;DHT22;1020;48.854;8.830;2022-08-19T13:51:37;26.20;99.90
2030;DHT22;1020;48.854;8.830;2022-08-19T13:54:05;26.30;99.90
2030;DHT22;1020;48.854;8.830;2022-08-19T13:56:33;26.50;99.90
2030;DHT22;1020;48.854;8.830;2022-08-19T13:58:59;26.50;99.90
2030;DHT22;1020;48.854;8.830;2022-08-19T14:01:26;26.30;99.90
2030;DHT22;1020;48.854;8.830;2022-08-19T14:03:53;26.20;99.90
2030;DHT22;1020;48.854;8.830;2022-08-19T14:06:20;26.10;99.90
2030;DHT22;1020;48.854;8.830;2022-08-19T14:08:48;26.10;99.90
2030;DHT22;1020;48.854;8.830;2022-08-19T14:11:15;26.20;99.90
2030;DHT22;1020;48.854;8.830;2022-08-19T14:13:43;26.10;99.90
2030;DHT22;1020;48.854;8.830;2022-08-19T14:16:12;26.10;99.90
2030;DHT22;1020;48.854;8.830;2022-08-19T14:18:40;26.00;99.90
2030;DHT22;1020;48.854;8.830;2022-08-19T14:21:08;25.90;99.90
2030;DHT22;1020;48.854;8.830;2022-08-19T14:23:34;26.10;99.90
2030;DHT22;1020;48.854;8.830;2022-08-19T14:26:06;26.00;99.90
2030;DHT22;1020;48.854;8.830;2022-08-19T14:28:33;25.80;99.90
2030;DHT22;1020;48.854;8.830;2022-08-19T14:31:01;25.80;99.90
2030;DHT22;1020;48.854;8.830;2022-08-19T14:33:28;25.90;99.90
2030;DHT22;1020;48.854;8.830;2022-08-19T14:35:55;25.70;99.90
2030;DHT22;1020;48.854;8.830;2022-08-19T14:38:22;25.60;99.90
2030;DHT22;1020;48.854;8.830;2022-08-19T14:40:49;25.80;99.90
2030;DHT22;1020;48.854;8.830;2022-08-19T14:43:17;25.90;99.90
2030;DHT22;1020;48.854;8.830;2022-08-19T14:45:45;25.90;99.90
2030;DHT22;1020;48.854;8.830;2022-08-19T14:48:13;26.00;99.90
2030;DHT22;1020;48.854;8.830;2022-08-19T14:50:39;26.30;99.90
2030;DHT22;1020;48.854;8.830;2022-08-19T14:53:07;26.50;99.90
2030;DHT22;1020;48.854;8.830;2022-08-19T14:55:35;26.40;99.90
2030;DHT22;1020;48.854;8.830;2022-08-19T14:58:02;26.60;99.90
2030;DHT22;1020;48.854;8.830;2022-08-19T15:00:29;26.80;99.90
2030;DHT22;1020;48.854;8.830;2022-08-19T15:02:55;26.80;99.90
2030;DHT22;1020;48.854;8.830;2022-08-19T15:05:25;27.00;99.90
2030;DHT22;1020;48.854;8.830;2022-08-19T15:07:53;27.00;99.90
2030;DHT22;1020;48.854;8.830;2022-08-19T15:10:22;26.90;99.90
2030;DHT22;1020;48.854;8.830;2022-08-19T15:12:50;27.10;99.90
2030;DHT22;1020;48.854;8.830;2022-08-19T15:15:18;27.10;99.90
2030;DHT22;1020;48.854;8.830;2022-08-19T15:17:45;27.10;99.90
2030;DHT22;1020;48.854;8.830;2022-08-19T15:20:14;27.10;99.90
2030;DHT22;1020;48.854;8.830;2022-08-19T15:22:42;27.10;99.90
2030;DHT22;1020;48.854;8.830;2022-08-19T15:25:11;26.90;99.90
2030;DHT22;1020;48.854;8.830;2022-08-19T15:27:38;27.00;99.90
2030;DHT22;1020;48.854;8.830;2022-08-19T15:30:07;26.90;99.90
2030;DHT22;1020;48.854;8.830;2022-08-19T15:32:34;27.00;99.90
2030;DHT22;1020;48.854;8.830;2022-08-19T15:35:01;27.00;99.90
2030;DHT22;1020;48.854;8.830;2022-08-19T15:37:28;27.10;99.90
2030;DHT22;1020;48.854;8.830;2022-08-19T15:39:56;27.10;99.90
2030;DHT22;1020;48.854;8.830;2022-08-19T15:42:23;27.20;99.90
2030;DHT22;1020;48.854;8.830;2022-08-19T15:44:51;27.20;99.90
2030;DHT22;1020;48.854;8.830;2022-08-19T15:47:18;27.10;99.90
2030;DHT22;1020;48.854;8.830;2022-08-19T15:49:45;27.00;99.90
2030;DHT22;1020;48.854;8.830;2022-08-19T15:52:12;26.80;99.90
2030;DHT22;1020;48.854;8.830;2022-08-19T15:54:38;26.80;99.90
2030;DHT22;1020;48.854;8.830;2022-08-19T15:57:07;26.60;99.90
2030;DHT22;1020;48.854;8.830;2022-08-19T15:59:51;26.50;99.90
2030;DHT22;1020;48.854;8.830;2022-08-19T16:02:35;26.30;99.90
2030;DHT22;1020;48.854;8.830;2022-08-19T16:05:23;26.20;99.90
2030;DHT22;1020;48.854;8.830;2022-08-19T16:08:07;26.00;99.90
2030;DHT22;1020;48.854;8.830;2022-08-19T16:10:34;25.90;99.90
2030;DHT22;1020;48.854;8.830;2022-08-19T16:13:04;25.80;99.90
2030;DHT22;1020;48.854;8.830;2022-08-19T16:15:32;25.70;99.90